Terminal Aerodrome Forecast
Issued by NWS

Home | Current Version | Previous Version | Text Only | Print | Product List | Glossary On
Versions: 1 2 3 4 5 6 7 8 9 10 11 12 13 14 15 16 17
000
FTUS42 KMLB 302331
TAFISM
TAF
KISM 302331Z 3100/3124 13010KT P6SM VCTS SCT030CB SCT120 OVC250
      TEMPO 3100/3104 5SM SHRA BKN030
     FM310400 14006KT P6SM VCSH SCT020 BKN050 OVC250
     FM310600 16005KT P6SM VCSH SCT020 BKN080 OVC250
     FM311300 20007KT P6SM SCT020 BKN100 OVC250
      TEMPO 3116/3118 2SM TSRA BKN020CB
     FM311800 19007KT P6SM VCTS SCT020CB BKN040 OVC150
      AMD NOT SKED 3102/3112=

USA.gov is the U.S. government's official web portal to all federal, state and local government web resources and services.